Terminal Aerodrome Forecast
Issued by NWS Honolulu, HI

Home | Current Version | Previous Version | Text Only | Print | Product List | Glossary On
Versions: 1 2 3 4 5 6 7 8 9 10 11 12 13 14 15 16 17 18 19 20 21 22 23 24
000
FTPA31 PHFO 302102 AAA
TAFHNL
TAF AMD
PHNL 302102Z 3021/0124 04015G24KT P6SM VCSH SCT025 BKN045
     FM010500 05012KT P6SM FEW025 SCT050
     FM012000 06011G16KT P6SM FEW025 SCT045=

USA.gov is the U.S. government's official web portal to all federal, state and local government web resources and services.